Time;durP1;ratioP1;P1;durP2;ratioP2;P2;SDS_P1;SDS_P2;PMS_P1;PMS_P2;Temp;Humidity;BMP_temperature;BMP_pressure;BME280_temperature;BME280_humidity;BME280_pressure;Samples;Min_cycle;Max_cycle;Signal;HPM_P1;HPM_P2
2024/02/25 00:01:46;;;;;;;7.03;3.72;;;;;;;6.60;60.66;98928.97;4165926;28;20064;-72
2024/02/25 00:03:46;;;;;;;6.70;3.77;;;;;;;6.66;60.52;98930.19;4165782;28;20398;-72
2024/02/25 00:05:47;;;;;;;6.47;3.33;;;;;;;6.67;60.56;98929.19;4165488;28;20428;-72
2024/02/25 00:07:47;;;;;;;6.00;3.60;;;;;;;6.75;60.20;98931.13;4166091;28;20033;-71
2024/02/25 00:09:48;;;;;;;6.63;3.88;;;;;;;6.66;60.38;98924.88;4166080;28;20298;-72
2024/02/25 00:11:48;;;;;;;6.50;3.70;;;;;;;6.67;60.26;98934.50;4165682;28;20490;-70
2024/02/25 00:13:48;;;;;;;6.00;3.17;;;;;;;6.69;60.30;98938.69;4166281;28;20029;-71
2024/02/25 00:15:49;;;;;;;5.27;2.87;;;;;;;6.63;60.40;98930.47;4165306;28;20545;-72
2024/02/25 00:17:49;;;;;;;6.40;3.00;;;;;;;6.63;60.40;98941.09;4166651;28;20026;-71
2024/02/25 00:19:50;;;;;;;5.37;2.77;;;;;;;6.65;60.37;98933.81;4166338;28;20465;-72
2024/02/25 00:21:50;;;;;;;6.28;3.20;;;;;;;6.65;60.37;98942.63;4166156;28;20123;-72
2024/02/25 00:23:51;;;;;;;7.00;3.67;;;;;;;6.58;60.59;98938.03;4166430;28;20039;-71
2024/02/25 00:25:51;;;;;;;5.95;3.13;;;;;;;6.54;60.75;98948.09;4165371;28;20120;-72
2024/02/25 00:27:51;;;;;;;7.10;2.88;;;;;;;6.50;61.04;98944.09;4165325;28;20033;-72
2024/02/25 00:29:52;;;;;;;5.77;3.07;;;;;;;6.57;60.55;98947.81;4166059;28;20660;-72
2024/02/25 00:31:52;;;;;;;6.03;2.90;;;;;;;6.53;60.65;98952.59;4165209;28;20346;-72
2024/02/25 00:33:53;;;;;;;5.07;3.03;;;;;;;6.48;60.81;98954.00;4166155;28;20033;-72
2024/02/25 00:35:53;;;;;;;6.53;3.72;;;;;;;6.50;60.87;98946.75;4165823;28;20482;-70
2024/02/25 00:37:53;;;;;;;6.40;3.40;;;;;;;6.52;60.62;98939.44;4166062;28;20025;-71
2024/02/25 00:39:54;;;;;;;6.57;3.57;;;;;;;6.54;60.79;98940.16;4165036;28;20025;-72
2024/02/25 00:41:56;;;;;;;5.87;3.27;;;;;;;6.58;60.44;98948.66;4165116;28;20335;-72
2024/02/25 00:43:56;;;;;;;4.95;2.63;;;;;;;6.58;60.50;98944.19;4165512;28;20075;-71
2024/02/25 00:45:57;;;;;;;5.50;2.83;;;;;;;6.50;60.66;98947.56;4165518;28;20022;-71
2024/02/25 00:47:57;;;;;;;5.47;3.10;;;;;;;6.43;60.84;98953.59;4165629;28;20068;-71
2024/02/25 00:49:57;;;;;;;6.18;3.50;;;;;;;6.33;60.95;98954.47;4165695;28;20036;-72
2024/02/25 00:51:58;;;;;;;6.10;3.73;;;;;;;6.30;61.22;98952.13;4165518;28;20758;-71
2024/02/25 00:53:59;;;;;;;5.57;2.90;;;;;;;6.33;61.06;98945.69;4173561;28;20040;-71
2024/02/25 00:55:59;;;;;;;7.53;3.35;;;;;;;6.32;61.14;98954.63;4179347;28;20082;-72
2024/02/25 00:57:59;;;;;;;6.47;3.33;;;;;;;6.22;61.42;98957.31;4177042;28;20036;-73
2024/02/25 01:00:00;;;;;;;6.37;3.37;;;;;;;6.18;61.40;98955.91;4176537;28;20460;-72
2024/02/25 01:02:00;;;;;;;7.13;3.30;;;;;;;6.17;61.50;98944.47;4178252;28;20060;-71
2024/02/25 01:04:00;;;;;;;5.22;3.30;;;;;;;6.18;61.46;98950.59;4178672;28;20041;-72
2024/02/25 01:06:01;;;;;;;6.00;3.33;;;;;;;6.18;61.53;98945.28;4180659;28;20033;-71
2024/02/25 01:08:01;;;;;;;5.60;3.27;;;;;;;6.15;61.56;98935.81;4174072;28;20021;-72
2024/02/25 01:10:02;;;;;;;6.38;3.55;;;;;;;6.26;61.19;98934.78;4165151;28;20049;-72
2024/02/25 01:12:03;;;;;;;6.93;3.75;;;;;;;6.33;61.22;98930.56;4165433;28;20029;-71
2024/02/25 01:14:04;;;;;;;6.82;3.47;;;;;;;6.31;61.24;98932.56;4166457;28;20048;-72
2024/02/25 01:16:06;;;;;;;7.25;3.67;;;;;;;6.37;61.24;98934.63;4180228;28;20048;-73
2024/02/25 01:18:07;;;;;;;5.38;3.20;;;;;;;6.46;60.90;98932.94;4176492;28;20021;-71
2024/02/25 01:20:07;;;;;;;6.00;3.10;;;;;;;6.44;60.91;98929.56;4164779;28;20031;-73
2024/02/25 01:22:08;;;;;;;7.80;3.45;;;;;;;6.50;60.76;98926.31;4164108;28;20029;-72
2024/02/25 01:24:08;;;;;;;10.05;3.35;;;;;;;6.45;60.87;98933.91;4163916;28;20479;-72
2024/02/25 01:26:10;;;;;;;9.30;3.27;;;;;;;6.45;60.96;98925.94;4163170;28;20140;-74
2024/02/25 01:28:11;;;;;;;6.38;2.88;;;;;;;6.59;60.53;98924.63;4164385;28;20280;-72
2024/02/25 01:30:13;;;;;;;5.32;2.88;;;;;;;6.42;61.04;98918.25;4164253;28;20417;-71
2024/02/25 01:32:16;;;;;;;5.50;3.47;;;;;;;6.30;61.34;98922.91;4164257;28;20082;-72
2024/02/25 01:34:16;;;;;;;6.45;3.08;;;;;;;6.39;61.06;98918.53;4164478;28;20025;-72
2024/02/25 01:36:17;;;;;;;5.83;2.87;;;;;;;6.36;61.18;98918.84;4164552;28;20516;-72
2024/02/25 01:38:17;;;;;;;5.10;2.47;;;;;;;6.36;61.04;98914.38;4164194;28;20482;-71
2024/02/25 01:40:18;;;;;;;4.82;2.55;;;;;;;6.32;61.29;98915.66;4164337;28;20402;-72
2024/02/25 01:42:22;;;;;;;4.82;2.65;;;;;;;6.40;61.23;98917.56;4163701;28;20064;-72
2024/02/25 01:44:22;;;;;;;5.82;2.90;;;;;;;6.47;61.06;98918.66;4163898;28;20583;-71
2024/02/25 01:46:22;;;;;;;5.73;2.40;;;;;;;6.50;60.83;98909.56;4164093;28;20027;-72
2024/02/25 01:48:24;;;;;;;19.02;3.45;;;;;;;6.44;60.97;98905.69;4162869;28;20450;-72
2024/02/25 01:50:25;;;;;;;5.05;2.90;;;;;;;6.56;60.90;98912.44;4164253;28;20056;-72
2024/02/25 01:52:27;;;;;;;4.25;2.10;;;;;;;6.45;60.85;98911.81;4163555;28;20029;-72
2024/02/25 01:54:27;;;;;;;5.28;2.58;;;;;;;6.52;60.73;98910.25;4164343;28;20520;-70
2024/02/25 01:56:28;;;;;;;4.97;2.58;;;;;;;6.43;60.90;98903.16;4164554;28;20108;-71
2024/02/25 01:58:29;;;;;;;5.40;2.70;;;;;;;6.42;60.89;98904.16;4164262;28;20125;-72
2024/02/25 02:00:30;;;;;;;4.85;2.60;;;;;;;6.46;60.84;98913.50;4163631;28;20029;-71
2024/02/25 02:02:31;;;;;;;5.78;2.60;;;;;;;6.40;60.98;98904.28;4163546;28;20472;-70
2024/02/25 02:04:32;;;;;;;4.47;2.33;;;;;;;6.37;61.08;98900.09;4163980;28;20132;-70
2024/02/25 02:06:33;;;;;;;4.70;2.55;;;;;;;6.42;60.89;98896.19;4163412;28;20044;-72
2024/02/25 02:08:34;;;;;;;5.97;2.57;;;;;;;6.35;61.09;98886.13;4163981;28;20029;-71
2024/02/25 02:10:35;;;;;;;5.05;2.45;;;;;;;6.32;61.08;98891.75;4163427;28;20268;-71
2024/02/25 02:12:46;;;;;;;5.10;2.80;;;;;;;6.32;61.38;98888.25;4163431;28;20049;-71
2024/02/25 02:14:46;;;;;;;5.03;2.55;;;;;;;6.27;61.28;98883.38;4163814;28;20034;-72
2024/02/25 02:16:47;;;;;;;4.45;2.53;;;;;;;6.15;61.67;98890.69;4163761;28;20036;-71
2024/02/25 02:18:49;;;;;;;5.70;2.80;;;;;;;6.18;61.56;98890.41;4163498;28;20044;-72
2024/02/25 02:20:49;;;;;;;;;;;;;;;6.13;61.84;98897.13;4163738;28;20105;-72
2024/02/25 02:22:51;;;;;;;6.40;3.03;;;;;;;6.02;61.87;98891.00;4166018;28;20281;-71
2024/02/25 02:24:51;;;;;;;5.78;2.85;;;;;;;6.05;61.84;98890.72;4164197;28;20064;-73
2024/02/25 02:26:52;;;;;;;6.57;3.28;;;;;;;5.91;62.08;98888.50;4163759;28;20438;-71
2024/02/25 02:28:52;;;;;;;5.60;3.47;;;;;;;6.02;61.97;98888.38;4164194;28;20501;-71
2024/02/25 02:30:53;;;;;;;5.13;2.72;;;;;;;6.04;61.76;98885.56;4164069;28;20032;-71
2024/02/25 02:32:53;;;;;;;5.37;3.17;;;;;;;6.07;61.78;98872.84;4164657;28;20061;-71
2024/02/25 02:34:54;;;;;;;8.03;3.47;;;;;;;6.06;61.92;98878.28;4163765;28;20268;-72
2024/02/25 02:36:54;;;;;;;6.07;2.90;;;;;;;6.05;61.84;98877.44;4161667;28;20272;-71
2024/02/25 02:38:55;;;;;;;7.80;3.60;;;;;;;6.01;62.05;98875.22;4155822;28;20066;-70
2024/02/25 02:40:55;;;;;;;5.18;2.90;;;;;;;5.98;61.99;98873.66;4141127;28;20038;-71
2024/02/25 02:42:57;;;;;;;6.40;3.10;;;;;;;5.96;62.26;98869.50;4144250;28;20025;-73
2024/02/25 02:45:00;;;;;;;7.13;2.92;;;;;;;5.95;62.36;98871.31;4142895;28;20280;-70
2024/02/25 02:47:01;;;;;;;5.43;3.17;;;;;;;6.01;62.20;98867.25;4137845;28;20034;-72
2024/02/25 02:49:02;;;;;;;5.18;2.50;;;;;;;5.97;62.16;98864.03;4148539;28;20042;-71
2024/02/25 02:51:02;;;;;;;5.32;2.85;;;;;;;5.88;62.47;98857.78;4158394;28;20064;-73
2024/02/25 02:53:03;;;;;;;5.32;3.08;;;;;;;5.81;62.63;98859.31;4160909;28;20382;-72
2024/02/25 02:55:04;;;;;;;8.38;3.10;;;;;;;5.68;62.88;98862.28;4153325;28;20474;-72
2024/02/25 02:57:04;;;;;;;5.20;3.40;;;;;;;5.71;62.93;98856.72;4155903;28;20457;-73
2024/02/25 02:59:05;;;;;;;6.18;3.17;;;;;;;5.60;63.41;98859.50;4144353;28;20050;-72
2024/02/25 03:01:05;;;;;;;4.15;2.55;;;;;;;5.72;63.02;98857.53;4138617;28;20045;-70
2024/02/25 03:03:06;;;;;;;6.93;2.80;;;;;;;5.81;62.71;98847.88;4135452;28;20045;-71
2024/02/25 03:05:07;;;;;;;5.10;2.85;;;;;;;5.76;62.85;98848.31;4134280;28;20048;-71
2024/02/25 03:07:07;;;;;;;5.70;2.58;;;;;;;5.84;62.72;98861.69;4145313;28;20034;-71
2024/02/25 03:09:08;;;;;;;5.73;2.90;;;;;;;5.93;62.43;98863.50;4144868;28;20037;-72
2024/02/25 03:11:08;;;;;;;4.97;2.90;;;;;;;5.87;62.75;98855.25;4142509;28;20517;-71
2024/02/25 03:13:09;;;;;;;5.40;2.88;;;;;;;5.83;62.76;98856.53;4150785;28;20030;-70
2024/02/25 03:15:10;;;;;;;6.90;2.50;;;;;;;5.94;62.48;98851.91;4147828;28;20117;-72
2024/02/25 03:17:10;;;;;;;5.82;3.15;;;;;;;5.96;62.42;98850.91;4158047;28;20025;-71
2024/02/25 03:19:11;;;;;;;6.15;3.38;;;;;;;5.88;62.54;98841.88;4159990;28;20605;-71
2024/02/25 03:21:11;;;;;;;5.60;3.27;;;;;;;5.82;62.59;98842.44;4157984;28;20033;-70
2024/02/25 03:23:13;;;;;;;5.60;2.97;;;;;;;5.80;62.60;98844.41;4158267;28;20279;-71
2024/02/25 03:25:14;;;;;;;7.03;3.72;;;;;;;5.77;62.76;98842.88;4150156;28;20175;-72
2024/02/25 03:27:15;;;;;;;6.95;2.72;;;;;;;5.78;62.50;98841.06;4157941;28;20123;-71
2024/02/25 03:29:15;;;;;;;6.15;2.67;;;;;;;5.70;62.87;98843.59;4158761;28;20025;-71
2024/02/25 03:31:16;;;;;;;5.75;2.63;;;;;;;5.75;62.68;98841.34;4150292;28;20018;-71
2024/02/25 03:33:17;;;;;;;6.22;2.95;;;;;;;5.82;62.55;98846.91;4159407;28;20040;-71
2024/02/25 03:35:17;;;;;;;6.37;2.97;;;;;;;5.68;62.95;98851.69;4160141;28;20029;-71
2024/02/25 03:37:18;;;;;;;6.45;3.05;;;;;;;5.69;62.88;98848.06;4160020;28;20076;-72
2024/02/25 03:39:18;;;;;;;5.43;2.90;;;;;;;5.61;63.09;98842.63;4157868;28;20562;-71
2024/02/25 03:41:18;;;;;;;5.40;3.22;;;;;;;5.66;62.99;98836.91;4157404;28;20034;-73
2024/02/25 03:43:20;;;;;;;5.03;2.80;;;;;;;5.65;63.00;98841.38;4157762;28;20609;-72
2024/02/25 03:45:21;;;;;;;5.10;2.33;;;;;;;5.76;62.69;98843.84;4157002;28;20108;-72
2024/02/25 03:47:23;;;;;;;5.43;3.05;;;;;;;5.62;62.98;98841.66;4158788;28;20038;-71
2024/02/25 03:49:23;;;;;;;6.45;3.03;;;;;;;5.83;62.57;98841.44;4158693;28;20075;-71
2024/02/25 03:51:24;;;;;;;5.65;3.03;;;;;;;5.85;62.50;98841.34;4159510;28;20421;-71
2024/02/25 03:53:24;;;;;;;3.90;2.38;;;;;;;5.84;62.34;98834.34;4160636;28;20545;-71
2024/02/25 03:55:25;;;;;;;6.30;2.50;;;;;;;5.77;62.64;98837.56;4160104;28;20038;-72
2024/02/25 03:57:26;;;;;;;4.95;2.30;;;;;;;5.86;62.49;98837.66;4159772;28;20029;-72
2024/02/25 03:59:26;;;;;;;5.63;3.00;;;;;;;5.81;62.57;98829.31;4159863;28;20097;-71
2024/02/25 04:01:27;;;;;;;4.93;2.53;;;;;;;5.86;62.53;98830.56;4167688;28;20018;-71
2024/02/25 04:03:27;;;;;;;5.40;3.10;;;;;;;5.84;62.61;98829.03;4152226;28;20054;-71
2024/02/25 04:05:28;;;;;;;4.50;2.40;;;;;;;5.88;62.39;98830.41;4164517;28;20030;-71
2024/02/25 04:07:28;;;;;;;5.80;2.63;;;;;;;5.83;62.57;98833.50;4157852;28;20036;-71
2024/02/25 04:09:28;;;;;;;5.38;2.85;;;;;;;5.78;62.54;98831.28;4157802;28;20126;-71
2024/02/25 04:11:29;;;;;;;6.10;2.50;;;;;;;5.76;62.74;98830.56;4150946;28;20363;-71
2024/02/25 04:13:29;;;;;;;4.53;2.30;;;;;;;5.80;62.42;98833.81;4164593;28;20268;-72
2024/02/25 04:15:30;;;;;;;7.27;2.53;;;;;;;5.83;62.49;98819.41;4157541;28;20371;-72
2024/02/25 04:17:31;;;;;;;6.28;2.90;;;;;;;5.85;62.20;98815.63;4157797;28;20267;-72
2024/02/25 04:19:32;;;;;;;4.82;2.40;;;;;;;5.99;61.68;98822.31;4157843;28;20060;-72
2024/02/25 04:21:32;;;;;;;5.65;2.50;;;;;;;6.00;61.75;98823.16;4157300;28;20036;-71
2024/02/25 04:23:32;;;;;;;5.20;2.40;;;;;;;6.05;61.59;98824.38;4155920;28;20371;-73
2024/02/25 04:25:33;;;;;;;4.57;2.60;;;;;;;6.24;60.88;98817.31;4159664;28;20260;-71
2024/02/25 04:27:34;;;;;;;5.07;2.33;;;;;;;6.12;61.21;98823.81;4185183;28;20009;-72
2024/02/25 04:29:37;;;;;;;5.47;2.55;;;;;;;6.13;61.17;98823.66;4160758;28;20109;-71
2024/02/25 04:31:43;;;;;;;4.88;2.80;;;;;;;6.03;61.25;98818.41;4157097;28;20025;-72
2024/02/25 04:33:43;;;;;;;4.75;2.40;;;;;;;6.01;61.30;98823.00;4156518;28;20032;-71
2024/02/25 04:35:44;;;;;;;6.25;2.63;;;;;;;5.85;61.64;98825.41;4157453;28;20489;-71
2024/02/25 04:37:44;;;;;;;4.80;2.80;;;;;;;5.86;61.74;98821.75;4155972;28;20091;-71
2024/02/25 04:39:45;;;;;;;5.03;2.72;;;;;;;5.82;61.80;98828.34;4157511;28;20100;-72
2024/02/25 04:41:45;;;;;;;4.97;2.58;;;;;;;5.94;61.41;98828.03;4156987;28;20151;-72
2024/02/25 04:43:45;;;;;;;4.30;2.60;;;;;;;5.77;62.05;98824.28;4156724;28;20540;-72
2024/02/25 04:45:46;;;;;;;6.30;2.65;;;;;;;5.90;61.57;98831.94;4156593;28;20428;-71
2024/02/25 04:47:46;;;;;;;6.50;2.43;;;;;;;5.96;61.21;98827.03;4161549;28;20029;-70
2024/02/25 04:49:47;;;;;;;4.70;2.20;;;;;;;5.97;61.28;98828.72;4155728;28;20808;-71
2024/02/25 04:51:48;;;;;;;4.07;2.08;;;;;;;5.92;61.42;98835.28;4155108;28;20272;-71
2024/02/25 04:53:55;;;;;;;4.43;2.30;;;;;;;5.93;61.36;98825.53;4157271;28;20505;-71
2024/02/25 04:55:56;;;;;;;9.20;2.30;;;;;;;6.06;61.09;98818.09;4156995;28;20034;-72
2024/02/25 04:57:57;;;;;;;5.13;2.10;;;;;;;6.13;60.95;98820.19;4156620;28;20061;-72
2024/02/25 04:59:57;;;;;;;4.35;2.28;;;;;;;6.22;60.61;98820.13;4157007;28;20044;-71
2024/02/25 05:01:58;;;;;;;5.03;2.93;;;;;;;6.31;60.37;98821.06;4153450;28;20026;-71
2024/02/25 05:03:59;;;;;;;4.50;2.30;;;;;;;6.20;60.61;98814.13;4167503;28;20332;-72
2024/02/25 05:05:59;;;;;;;4.70;2.50;;;;;;;6.19;60.83;98812.44;4168560;28;20026;-71
2024/02/25 05:07:59;;;;;;;4.82;2.70;;;;;;;6.10;61.05;98823.94;4163606;28;20125;-72
2024/02/25 05:10:00;;;;;;;4.97;2.30;;;;;;;6.15;60.81;98827.00;4148830;28;20635;-72
2024/02/25 05:12:00;;;;;;;4.20;1.98;;;;;;;6.09;60.89;98832.91;4138539;28;20079;-71
2024/02/25 05:14:01;;;;;;;4.80;2.03;;;;;;;6.02;61.04;98837.09;4136516;28;20033;-72
2024/02/25 05:16:06;;;;;;;4.40;2.38;;;;;;;5.98;61.36;98838.34;4146735;28;20264;-72
2024/02/25 05:18:07;;;;;;;4.45;2.22;;;;;;;6.06;61.05;98828.69;4148688;28;20026;-71
2024/02/25 05:20:07;;;;;;;5.97;2.53;;;;;;;6.15;60.74;98828.81;4148513;28;20036;-72
2024/02/25 05:22:08;;;;;;;4.78;1.83;;;;;;;6.15;60.73;98831.47;4147965;28;20033;-71
2024/02/25 05:24:09;;;;;;;4.57;2.20;;;;;;;6.15;60.83;98842.06;4148326;28;20037;-72
2024/02/25 05:26:09;;;;;;;5.22;2.13;;;;;;;6.14;60.72;98832.47;4148143;28;20495;-73
2024/02/25 05:28:10;;;;;;;5.00;2.43;;;;;;;6.20;60.44;98832.69;4148247;28;20029;-72
2024/02/25 05:30:11;;;;;;;5.03;1.95;;;;;;;6.20;60.42;98835.34;4147971;28;20052;-71
2024/02/25 05:32:11;;;;;;;4.75;2.10;;;;;;;6.23;60.25;98839.56;4147738;28;20034;-72
2024/02/25 05:34:11;;;;;;;4.28;2.00;;;;;;;6.22;60.24;98832.56;4147225;28;20026;-71
2024/02/25 05:36:12;;;;;;;3.90;1.80;;;;;;;6.31;60.10;98836.16;4147779;28;20033;-71
2024/02/25 05:38:12;;;;;;;3.83;1.53;;;;;;;6.40;59.96;98829.94;4147864;28;20085;-71
2024/02/25 05:40:13;;;;;;;5.15;1.95;;;;;;;6.45;59.85;98827.72;4147915;28;20074;-71
2024/02/25 05:42:13;;;;;;;3.75;2.00;;;;;;;6.45;59.55;98829.50;4147646;28;20521;-71
2024/02/25 05:44:15;;;;;;;3.40;1.63;;;;;;;6.56;59.62;98834.63;4147859;28;20053;-72
2024/02/25 05:46:15;;;;;;;3.40;1.50;;;;;;;6.47;59.68;98839.00;4147857;28;20386;-72
2024/02/25 05:48:16;;;;;;;4.30;1.53;;;;;;;6.58;59.45;98837.97;4147208;28;20033;-71
2024/02/25 05:50:16;;;;;;;3.80;1.58;;;;;;;6.59;59.38;98837.00;4147698;28;20640;-72
2024/02/25 05:52:17;;;;;;;3.72;1.73;;;;;;;6.59;59.49;98828.16;4147782;28;20026;-72
2024/02/25 05:54:17;;;;;;;4.43;1.80;;;;;;;6.66;59.21;98837.25;4147900;28;20076;-72
2024/02/25 05:56:17;;;;;;;4.83;1.97;;;;;;;6.59;59.38;98833.47;4147929;28;20139;-71
2024/02/25 05:58:18;;;;;;;3.90;1.73;;;;;;;6.65;59.22;98836.38;4148271;28;20033;-72
2024/02/25 06:00:20;;;;;;;3.75;1.60;;;;;;;6.68;59.15;98838.75;4159760;28;20279;-73
2024/02/25 06:02:20;;;;;;;4.45;2.13;;;;;;;6.62;59.28;98839.34;4158084;28;20049;-71
2024/02/25 06:04:21;;;;;;;4.73;1.83;;;;;;;6.67;59.13;98837.06;4148971;28;20045;-72
2024/02/25 06:06:21;;;;;;;4.95;1.58;;;;;;;6.76;58.90;98835.31;4148948;28;20784;-72
2024/02/25 06:08:27;;;;;;;6.17;1.90;;;;;;;6.76;58.89;98837.97;4155348;28;20048;-70
2024/02/25 06:10:28;;;;;;;3.30;1.75;;;;;;;6.55;59.36;98832.94;4169461;28;20271;-71
2024/02/25 06:12:31;;;;;;;4.10;1.67;;;;;;;6.58;59.16;98832.66;4181686;28;20092;-71
2024/02/25 06:14:32;;;;;;;4.65;1.88;;;;;;;6.56;59.16;98837.28;4181510;28;20040;-70
2024/02/25 06:16:32;;;;;;;4.13;2.10;;;;;;;6.67;58.89;98836.22;4181319;28;20020;-71
2024/02/25 06:18:33;;;;;;;4.45;1.63;;;;;;;6.72;58.73;98840.09;4181312;28;20025;-72
2024/02/25 06:20:33;;;;;;;3.75;1.60;;;;;;;6.76;58.46;98834.50;4179737;28;20120;-71
2024/02/25 06:22:35;;;;;;;3.33;1.70;;;;;;;6.63;58.81;98837.53;4173327;28;20441;-70
2024/02/25 06:24:35;;;;;;;5.07;2.00;;;;;;;6.69;58.68;98839.56;4170324;28;20124;-71
2024/02/25 06:26:36;;;;;;;3.77;1.63;;;;;;;6.81;58.33;98837.53;4166643;28;20072;-71
2024/02/25 06:28:37;;;;;;;4.30;2.10;;;;;;;6.86;58.21;98840.59;4162395;28;20087;-71
2024/02/25 06:30:38;;;;;;;4.35;1.90;;;;;;;6.61;58.84;98843.00;4163565;28;20034;-72
2024/02/25 06:32:39;;;;;;;4.30;2.13;;;;;;;6.85;58.19;98837.09;4163341;28;20102;-71
2024/02/25 06:34:39;;;;;;;4.50;1.85;;;;;;;6.80;58.30;98836.72;4164543;28;20018;-71
2024/02/25 06:36:39;;;;;;;4.65;2.00;;;;;;;6.79;58.31;98844.84;4163691;28;20033;-71
2024/02/25 06:38:40;;;;;;;4.67;1.87;;;;;;;6.74;58.47;98842.63;4163791;28;20180;-72
2024/02/25 06:40:41;;;;;;;3.95;2.10;;;;;;;6.72;58.62;98844.59;4163198;28;20264;-70
2024/02/25 06:42:41;;;;;;;4.60;2.03;;;;;;;6.81;58.46;98848.16;4163109;28;20025;-72
2024/02/25 06:44:44;;;;;;;4.37;2.00;;;;;;;6.87;58.14;98844.91;4163380;28;20268;-72
2024/02/25 06:46:44;;;;;;;5.75;1.90;;;;;;;6.93;58.12;98851.47;4161960;28;20272;-71
2024/02/25 06:48:45;;;;;;;4.47;2.38;;;;;;;7.18;57.48;98849.84;4162833;28;20104;-72
2024/02/25 06:50:46;;;;;;;4.65;2.03;;;;;;;7.27;57.29;98843.66;4162699;28;20111;-71
2024/02/25 06:52:46;;;;;;;4.07;1.93;;;;;;;7.22;57.52;98845.91;4163305;28;20100;-71
2024/02/25 06:54:47;;;;;;;5.77;2.13;;;;;;;7.18;57.63;98847.19;4164043;28;20087;-71
2024/02/25 06:56:47;;;;;;;4.57;2.00;;;;;;;7.13;57.78;98854.81;4163036;28;20581;-71
2024/02/25 06:58:48;;;;;;;4.30;1.77;;;;;;;7.14;57.77;98853.81;4163282;28;20033;-71
2024/02/25 07:00:48;;;;;;;6.10;1.90;;;;;;;7.08;57.75;98857.09;4163124;28;20167;-72
2024/02/25 07:02:54;;;;;;;4.20;1.88;;;;;;;7.05;57.91;98852.06;4163314;28;20029;-71
2024/02/25 07:04:54;;;;;;;4.60;1.92;;;;;;;6.95;58.19;98860.94;4163615;28;20050;-72
2024/02/25 07:06:55;;;;;;;4.05;1.98;;;;;;;7.01;58.04;98865.66;4162998;28;20025;-72
2024/02/25 07:08:55;;;;;;;5.70;2.07;;;;;;;7.07;58.06;98863.38;4156038;28;20025;-73
2024/02/25 07:10:56;;;;;;;6.70;2.22;;;;;;;7.25;57.61;98864.22;4146753;28;20318;-71
2024/02/25 07:12:56;;;;;;;3.80;1.70;;;;;;;7.16;57.93;98870.44;4146796;28;20386;-72
2024/02/25 07:14:57;;;;;;;4.95;2.08;;;;;;;7.07;57.97;98879.34;4147359;28;20072;-72
2024/02/25 07:16:57;;;;;;;4.55;2.20;;;;;;;7.12;57.82;98879.69;4146913;28;20037;-72
2024/02/25 07:18:57;;;;;;;4.73;2.40;;;;;;;7.31;57.44;98876.91;4147232;28;20021;-71
2024/02/25 07:20:58;;;;;;;3.88;1.90;;;;;;;7.08;57.92;98891.63;4146613;28;20026;-72
2024/02/25 07:22:58;;;;;;;5.33;2.60;;;;;;;7.03;58.21;98886.78;4146948;28;20069;-72
2024/02/25 07:24:59;;;;;;;4.70;2.37;;;;;;;7.00;58.23;98893.19;4143656;28;20057;-71
2024/02/25 07:26:59;;;;;;;3.67;1.73;;;;;;;7.14;58.05;98893.69;4146531;28;20292;-71
2024/02/25 07:29:00;;;;;;;5.80;2.53;;;;;;;7.23;57.77;98889.25;4146796;28;20034;-72
2024/02/25 07:31:03;;;;;;;7.78;2.60;;;;;;;7.14;57.79;98902.47;4146530;28;20037;-72
2024/02/25 07:33:04;;;;;;;5.40;2.75;;;;;;;7.22;57.78;98888.44;4147047;28;20030;-71
2024/02/25 07:35:05;;;;;;;4.78;2.45;;;;;;;7.42;57.36;98885.63;4146815;28;20022;-72
2024/02/25 07:37:05;;;;;;;4.57;1.83;;;;;;;7.62;57.11;98884.47;4153311;28;20040;-72
2024/02/25 07:39:06;;;;;;;6.22;2.38;;;;;;;7.54;57.22;98886.22;4153696;28;20117;-71
2024/02/25 07:41:07;;;;;;;4.18;2.30;;;;;;;7.39;57.55;98889.44;4146136;28;20038;-73
2024/02/25 07:43:07;;;;;;;;;;;;;;;7.12;58.32;98898.31;4147227;28;20022;-72
2024/02/25 07:45:08;;;;;;;5.67;2.87;;;;;;;7.25;58.12;98892.63;4146954;28;19944;-72
2024/02/25 07:47:08;;;;;;;5.45;3.05;;;;;;;7.26;58.13;98892.47;4146388;28;20030;-73
2024/02/25 07:49:09;;;;;;;6.00;2.97;;;;;;;7.24;58.29;98899.78;4146446;28;20030;-69
2024/02/25 07:51:09;;;;;;;5.00;2.53;;;;;;;7.32;58.19;98899.03;4147429;28;20429;-71
2024/02/25 07:53:09;;;;;;;8.37;2.63;;;;;;;7.43;58.17;98882.00;4150587;28;20030;-70
2024/02/25 07:55:10;;;;;;;4.57;2.30;;;;;;;7.43;57.96;98880.16;4148929;28;20269;-71
2024/02/25 07:57:10;;;;;;;5.18;2.20;;;;;;;7.59;57.79;98882.13;4149122;28;20025;-70
2024/02/25 07:59:11;;;;;;;4.50;2.00;;;;;;;7.74;57.30;98878.91;4153754;28;20504;-71
2024/02/25 08:01:11;;;;;;;5.55;2.55;;;;;;;7.69;57.43;98878.53;4149803;28;20470;-71
2024/02/25 08:03:11;;;;;;;7.37;2.83;;;;;;;7.70;57.62;98881.03;4151207;28;20057;-71
2024/02/25 08:05:12;;;;;;;6.60;3.27;;;;;;;7.83;57.43;98882.44;4151749;28;20363;-71
2024/02/25 08:07:12;;;;;;;6.13;2.38;;;;;;;7.81;57.37;98879.97;4150758;28;20034;-71
2024/02/25 08:09:13;;;;;;;4.45;2.38;;;;;;;7.85;57.16;98880.47;4149918;28;20065;-72
2024/02/25 08:11:13;;;;;;;6.23;2.33;;;;;;;7.96;56.95;98874.91;4148124;28;20022;-71
2024/02/25 08:13:13;;;;;;;5.40;2.38;;;;;;;7.88;56.92;98872.19;4149811;28;20040;-71
2024/02/25 08:15:15;;;;;;;4.90;2.50;;;;;;;7.94;56.81;98877.69;4149142;28;20642;-72
2024/02/25 08:17:16;;;;;;;;;;;;;;;7.87;56.39;98876.66;4148557;28;20052;-72
2024/02/25 08:19:16;;;;;;;5.38;2.65;;;;;;;7.85;56.45;98872.50;4149188;28;20362;-72
2024/02/25 08:21:17;;;;;;;4.45;2.25;;;;;;;8.02;56.33;98868.13;4157715;28;20100;-72
2024/02/25 08:23:17;;;;;;;5.72;2.47;;;;;;;8.03;56.39;98872.47;4161766;28;20022;-71
2024/02/25 08:25:18;;;;;;;5.03;2.20;;;;;;;7.95;56.71;98868.72;4160928;28;20037;-71
2024/02/25 08:27:18;;;;;;;4.35;2.42;;;;;;;8.13;56.38;98870.50;4152815;28;20017;-72
2024/02/25 08:29:19;;;;;;;5.15;2.30;;;;;;;8.27;55.99;98861.94;4165888;28;20029;-71
2024/02/25 08:31:20;;;;;;;6.10;2.42;;;;;;;8.19;56.33;98867.22;4165451;28;20025;-72
2024/02/25 08:33:20;;;;;;;5.68;2.50;;;;;;;8.30;55.99;98866.09;4165326;28;20025;-71
2024/02/25 08:35:21;;;;;;;6.53;2.65;;;;;;;8.27;56.00;98869.91;4165634;28;20065;-72
2024/02/25 08:37:23;;;;;;;3.97;1.77;;;;;;;8.35;55.79;98868.28;4167792;28;20462;-72
2024/02/25 08:39:24;;;;;;;4.50;2.17;;;;;;;8.48;55.37;98868.72;4166711;28;20470;-71
2024/02/25 08:41:24;;;;;;;6.47;2.50;;;;;;;8.48;55.24;98873.19;4166764;28;20104;-73
2024/02/25 08:43:25;;;;;;;4.68;2.05;;;;;;;8.57;54.80;98862.44;4169654;28;20075;-72
2024/02/25 08:45:25;;;;;;;4.32;1.77;;;;;;;8.36;54.93;98869.97;4173962;28;20033;-64
2024/02/25 08:47:26;;;;;;;4.70;1.80;;;;;;;8.36;54.92;98865.44;4172664;28;20440;-64
2024/02/25 08:49:26;;;;;;;4.65;2.08;;;;;;;8.45;54.53;98868.19;4181802;28;20036;-63
2024/02/25 08:51:27;;;;;;;3.97;1.67;;;;;;;8.65;54.12;98868.78;4173007;28;20545;-63
2024/02/25 08:53:27;;;;;;;5.05;1.65;;;;;;;8.68;54.08;98863.13;4182818;28;20033;-65
2024/02/25 08:55:27;;;;;;;5.10;1.77;;;;;;;8.85;53.94;98858.66;4181965;28;20021;-72
2024/02/25 08:57:31;;;;;;;3.47;1.60;;;;;;;8.91;53.93;98871.34;4181619;28;20025;-71
2024/02/25 08:59:32;;;;;;;4.18;1.98;;;;;;;8.99;53.69;98859.88;4177642;28;20347;-72
2024/02/25 09:01:32;;;;;;;4.03;1.80;;;;;;;9.17;53.22;98865.88;4171153;28;20110;-71
2024/02/25 09:03:33;;;;;;;5.25;2.33;;;;;;;9.21;53.40;98869.91;4169618;28;20581;-71
2024/02/25 09:05:34;;;;;;;6.73;1.90;;;;;;;9.43;52.87;98859.59;4169588;28;20052;-71
2024/02/25 09:07:37;;;;;;;4.03;1.70;;;;;;;9.40;52.91;98862.59;4173544;28;20021;-72
2024/02/25 09:09:38;;;;;;;4.10;2.10;;;;;;;9.63;52.53;98859.25;4169110;28;20029;-71
2024/02/25 09:11:41;;;;;;;5.68;1.92;;;;;;;9.67;52.39;98863.25;4175669;28;20028;-72
2024/02/25 09:13:42;;;;;;;3.60;1.52;;;;;;;10.09;51.53;98864.88;4180543;28;20071;-73
2024/02/25 09:15:42;;;;;;;3.40;1.20;;;;;;;9.60;51.62;98856.94;4167000;28;20025;-72
2024/02/25 09:17:43;;;;;;;4.70;1.57;;;;;;;9.68;51.54;98854.25;4173095;28;20053;-70
2024/02/25 09:19:43;;;;;;;;;;;;;;;9.74;50.38;98864.25;4172208;28;20413;-70
2024/02/25 09:21:47;;;;;;;3.13;1.10;;;;;;;9.72;51.03;98854.75;4173904;28;20009;-71
2024/02/25 09:23:47;;;;;;;5.30;1.50;;;;;;;9.74;51.18;98842.88;4172646;28;20053;-71
2024/02/25 09:25:47;;;;;;;5.03;1.60;;;;;;;10.02;50.61;98849.69;4174642;28;20068;-72
2024/02/25 09:27:48;;;;;;;3.08;1.20;;;;;;;9.98;50.25;98846.53;4176800;28;20389;-70
2024/02/25 09:29:49;;;;;;;2.78;1.13;;;;;;;10.30;49.96;98845.59;4180758;28;20027;-71
2024/02/25 09:31:49;;;;;;;3.20;0.93;;;;;;;10.15;50.06;98844.66;4179514;28;20032;-71
2024/02/25 09:33:50;;;;;;;4.88;1.27;;;;;;;10.07;50.15;98850.84;4176074;28;20021;-71
2024/02/25 09:35:51;;;;;;;3.35;1.20;;;;;;;10.26;49.81;98851.47;4177927;28;20242;-71